sensor_id;sensor_type;location;lat;lon;timestamp;P1;durP1;ratioP1;P2;durP2;ratioP2
16977;SDS011;8605;52.548;4.918;2024-03-02T00:01:05;5.63;;;2.40;;
16977;SDS011;8605;52.548;4.918;2024-03-02T00:03:34;3.77;;;2.00;;
16977;SDS011;8605;52.548;4.918;2024-03-02T00:06:02;5.80;;;2.00;;
16977;SDS011;8605;52.548;4.918;2024-03-02T00:08:31;3.47;;;2.00;;
16977;SDS011;8605;52.548;4.918;2024-03-02T00:10:59;5.37;;;2.03;;
16977;SDS011;8605;52.548;4.918;2024-03-02T00:13:29;8.03;;;2.27;;
16977;SDS011;8605;52.548;4.918;2024-03-02T00:15:58;7.80;;;2.40;;
16977;SDS011;8605;52.548;4.918;2024-03-02T00:18:26;5.27;;;1.80;;
16977;SDS011;8605;52.548;4.918;2024-03-02T00:20:57;4.30;;;2.20;;
16977;SDS011;8605;52.548;4.918;2024-03-02T00:23:27;4.03;;;2.20;;
16977;SDS011;8605;52.548;4.918;2024-03-02T00:25:58;6.47;;;2.37;;
16977;SDS011;8605;52.548;4.918;2024-03-02T00:28:27;1.50;;;1.13;;
16977;SDS011;8605;52.548;4.918;2024-03-02T00:31:02;2.43;;;1.20;;
16977;SDS011;8605;52.548;4.918;2024-03-02T00:33:32;2.37;;;1.30;;
16977;SDS011;8605;52.548;4.918;2024-03-02T00:36:02;3.13;;;1.20;;
16977;SDS011;8605;52.548;4.918;2024-03-02T00:38:31;2.47;;;1.20;;
16977;SDS011;8605;52.548;4.918;2024-03-02T00:41:04;1.27;;;1.00;;
16977;SDS011;8605;52.548;4.918;2024-03-02T00:43:41;3.53;;;1.10;;
16977;SDS011;8605;52.548;4.918;2024-03-02T00:46:14;2.57;;;1.10;;
16977;SDS011;8605;52.548;4.918;2024-03-02T00:48:53;3.07;;;1.30;;
16977;SDS011;8605;52.548;4.918;2024-03-02T00:51:23;1.47;;;0.90;;
16977;SDS011;8605;52.548;4.918;2024-03-02T00:53:51;2.30;;;1.10;;
16977;SDS011;8605;52.548;4.918;2024-03-02T00:56:23;2.87;;;1.20;;
16977;SDS011;8605;52.548;4.918;2024-03-02T00:58:52;1.00;;;0.90;;
16977;SDS011;8605;52.548;4.918;2024-03-02T01:01:20;1.00;;;0.80;;
16977;SDS011;8605;52.548;4.918;2024-03-02T01:03:49;1.57;;;0.90;;
16977;SDS011;8605;52.548;4.918;2024-03-02T01:06:17;1.43;;;0.87;;
16977;SDS011;8605;52.548;4.918;2024-03-02T01:08:45;1.27;;;0.90;;
16977;SDS011;8605;52.548;4.918;2024-03-02T01:11:17;0.80;;;0.80;;
16977;SDS011;8605;52.548;4.918;2024-03-02T01:13:46;1.20;;;0.80;;
16977;SDS011;8605;52.548;4.918;2024-03-02T01:16:14;0.80;;;0.80;;
16977;SDS011;8605;52.548;4.918;2024-03-02T01:18:42;1.13;;;0.90;;
16977;SDS011;8605;52.548;4.918;2024-03-02T01:21:11;1.90;;;0.83;;
16977;SDS011;8605;52.548;4.918;2024-03-02T01:23:39;0.93;;;0.80;;
16977;SDS011;8605;52.548;4.918;2024-03-02T01:26:05;1.10;;;1.00;;
16977;SDS011;8605;52.548;4.918;2024-03-02T01:28:33;1.87;;;1.20;;
16977;SDS011;8605;52.548;4.918;2024-03-02T01:31:03;1.63;;;1.10;;
16977;SDS011;8605;52.548;4.918;2024-03-02T01:33:31;1.20;;;1.10;;
16977;SDS011;8605;52.548;4.918;2024-03-02T01:35:58;2.20;;;1.20;;
16977;SDS011;8605;52.548;4.918;2024-03-02T01:38:26;1.57;;;1.10;;
16977;SDS011;8605;52.548;4.918;2024-03-02T01:40:55;2.47;;;1.40;;
16977;SDS011;8605;52.548;4.918;2024-03-02T01:43:23;3.27;;;1.20;;
16977;SDS011;8605;52.548;4.918;2024-03-02T01:45:52;1.97;;;1.30;;
16977;SDS011;8605;52.548;4.918;2024-03-02T01:48:21;1.60;;;1.40;;
16977;SDS011;8605;52.548;4.918;2024-03-02T01:50:49;2.77;;;1.30;;
16977;SDS011;8605;52.548;4.918;2024-03-02T01:53:17;1.13;;;1.03;;
16977;SDS011;8605;52.548;4.918;2024-03-02T01:55:45;2.37;;;1.13;;
16977;SDS011;8605;52.548;4.918;2024-03-02T01:58:13;2.37;;;1.30;;
16977;SDS011;8605;52.548;4.918;2024-03-02T02:00:41;1.87;;;1.20;;
16977;SDS011;8605;52.548;4.918;2024-03-02T02:03:09;1.33;;;1.20;;
16977;SDS011;8605;52.548;4.918;2024-03-02T02:05:38;1.70;;;1.10;;
16977;SDS011;8605;52.548;4.918;2024-03-02T02:08:06;2.23;;;1.40;;
16977;SDS011;8605;52.548;4.918;2024-03-02T02:10:34;1.43;;;1.33;;
16977;SDS011;8605;52.548;4.918;2024-03-02T02:13:02;1.97;;;1.43;;
16977;SDS011;8605;52.548;4.918;2024-03-02T02:15:30;4.57;;;1.83;;
16977;SDS011;8605;52.548;4.918;2024-03-02T02:18:01;4.50;;;2.30;;
16977;SDS011;8605;52.548;4.918;2024-03-02T02:20:30;5.57;;;3.00;;
16977;SDS011;8605;52.548;4.918;2024-03-02T02:22:59;4.30;;;3.63;;
16977;SDS011;8605;52.548;4.918;2024-03-02T02:25:28;4.27;;;3.63;;
16977;SDS011;8605;52.548;4.918;2024-03-02T02:27:57;6.37;;;3.93;;
16977;SDS011;8605;52.548;4.918;2024-03-02T02:30:26;4.20;;;3.73;;
16977;SDS011;8605;52.548;4.918;2024-03-02T02:32:55;4.37;;;3.40;;
16977;SDS011;8605;52.548;4.918;2024-03-02T02:35:24;5.63;;;3.20;;
16977;SDS011;8605;52.548;4.918;2024-03-02T02:37:52;3.60;;;3.03;;
16977;SDS011;8605;52.548;4.918;2024-03-02T02:40:24;4.30;;;3.30;;
16977;SDS011;8605;52.548;4.918;2024-03-02T02:42:52;5.33;;;3.43;;
16977;SDS011;8605;52.548;4.918;2024-03-02T02:45:20;5.37;;;3.40;;
16977;SDS011;8605;52.548;4.918;2024-03-02T02:47:48;5.80;;;3.20;;
16977;SDS011;8605;52.548;4.918;2024-03-02T02:50:16;3.30;;;3.00;;
16977;SDS011;8605;52.548;4.918;2024-03-02T02:52:44;4.40;;;3.10;;
16977;SDS011;8605;52.548;4.918;2024-03-02T02:55:12;3.63;;;3.20;;
16977;SDS011;8605;52.548;4.918;2024-03-02T02:57:43;4.10;;;3.50;;
16977;SDS011;8605;52.548;4.918;2024-03-02T03:00:15;3.83;;;3.33;;
16977;SDS011;8605;52.548;4.918;2024-03-02T03:02:46;4.00;;;3.60;;
16977;SDS011;8605;52.548;4.918;2024-03-02T03:05:17;5.30;;;3.87;;
16977;SDS011;8605;52.548;4.918;2024-03-02T03:07:45;3.87;;;3.30;;
16977;SDS011;8605;52.548;4.918;2024-03-02T03:10:16;3.47;;;2.97;;
16977;SDS011;8605;52.548;4.918;2024-03-02T03:12:46;3.10;;;2.80;;
16977;SDS011;8605;52.548;4.918;2024-03-02T03:15:14;3.30;;;2.73;;
16977;SDS011;8605;52.548;4.918;2024-03-02T03:17:42;3.50;;;2.80;;
16977;SDS011;8605;52.548;4.918;2024-03-02T03:20:12;3.10;;;2.50;;
16977;SDS011;8605;52.548;4.918;2024-03-02T03:22:42;2.83;;;2.40;;
16977;SDS011;8605;52.548;4.918;2024-03-02T03:25:10;3.27;;;2.27;;
16977;SDS011;8605;52.548;4.918;2024-03-02T03:27:37;2.30;;;2.10;;
16977;SDS011;8605;52.548;4.918;2024-03-02T03:30:07;4.20;;;2.43;;
16977;SDS011;8605;52.548;4.918;2024-03-02T03:32:35;3.10;;;2.40;;
16977;SDS011;8605;52.548;4.918;2024-03-02T03:35:04;4.23;;;2.77;;
16977;SDS011;8605;52.548;4.918;2024-03-02T03:37:32;2.80;;;2.60;;
16977;SDS011;8605;52.548;4.918;2024-03-02T03:40:01;5.53;;;2.53;;
16977;SDS011;8605;52.548;4.918;2024-03-02T03:42:33;3.17;;;2.53;;
16977;SDS011;8605;52.548;4.918;2024-03-02T03:45:01;3.97;;;2.40;;
16977;SDS011;8605;52.548;4.918;2024-03-02T03:47:32;4.53;;;2.70;;
16977;SDS011;8605;52.548;4.918;2024-03-02T03:50:00;3.20;;;2.60;;
16977;SDS011;8605;52.548;4.918;2024-03-02T03:52:33;3.80;;;2.73;;
16977;SDS011;8605;52.548;4.918;2024-03-02T03:55:01;3.00;;;2.47;;
16977;SDS011;8605;52.548;4.918;2024-03-02T03:57:29;3.10;;;2.47;;
16977;SDS011;8605;52.548;4.918;2024-03-02T03:59:57;3.17;;;2.80;;
16977;SDS011;8605;52.548;4.918;2024-03-02T04:02:26;6.10;;;3.03;;
16977;SDS011;8605;52.548;4.918;2024-03-02T04:04:56;4.83;;;2.53;;
16977;SDS011;8605;52.548;4.918;2024-03-02T04:07:23;3.23;;;2.37;;
16977;SDS011;8605;52.548;4.918;2024-03-02T04:09:51;5.57;;;3.20;;
16977;SDS011;8605;52.548;4.918;2024-03-02T04:12:19;6.43;;;3.00;;
16977;SDS011;8605;52.548;4.918;2024-03-02T04:14:47;5.37;;;2.40;;
16977;SDS011;8605;52.548;4.918;2024-03-02T04:17:14;3.90;;;2.50;;
16977;SDS011;8605;52.548;4.918;2024-03-02T04:19:42;2.93;;;2.60;;
16977;SDS011;8605;52.548;4.918;2024-03-02T04:22:11;2.93;;;2.27;;
16977;SDS011;8605;52.548;4.918;2024-03-02T04:24:51;3.37;;;2.50;;
16977;SDS011;8605;52.548;4.918;2024-03-02T04:27:19;4.00;;;2.53;;
16977;SDS011;8605;52.548;4.918;2024-03-02T04:29:47;3.33;;;2.20;;
16977;SDS011;8605;52.548;4.918;2024-03-02T04:32:15;5.17;;;1.97;;
16977;SDS011;8605;52.548;4.918;2024-03-02T04:34:43;3.50;;;1.90;;
16977;SDS011;8605;52.548;4.918;2024-03-02T04:37:12;3.90;;;1.60;;
16977;SDS011;8605;52.548;4.918;2024-03-02T04:39:40;3.03;;;1.70;;
16977;SDS011;8605;52.548;4.918;2024-03-02T04:42:08;2.13;;;1.70;;
16977;SDS011;8605;52.548;4.918;2024-03-02T04:44:36;3.97;;;1.67;;
16977;SDS011;8605;52.548;4.918;2024-03-02T04:47:04;3.70;;;1.63;;
16977;SDS011;8605;52.548;4.918;2024-03-02T04:49:32;3.97;;;1.70;;
16977;SDS011;8605;52.548;4.918;2024-03-02T04:52:00;5.47;;;1.90;;
16977;SDS011;8605;52.548;4.918;2024-03-02T04:54:30;2.57;;;1.77;;
16977;SDS011;8605;52.548;4.918;2024-03-02T04:56:58;2.70;;;2.07;;
16977;SDS011;8605;52.548;4.918;2024-03-02T04:59:25;3.57;;;1.93;;
16977;SDS011;8605;52.548;4.918;2024-03-02T05:01:52;4.47;;;2.90;;
16977;SDS011;8605;52.548;4.918;2024-03-02T05:04:20;4.43;;;2.73;;
16977;SDS011;8605;52.548;4.918;2024-03-02T05:06:48;5.93;;;2.40;;
16977;SDS011;8605;52.548;4.918;2024-03-02T05:09:19;4.87;;;2.70;;
16977;SDS011;8605;52.548;4.918;2024-03-02T05:11:49;3.77;;;2.37;;
16977;SDS011;8605;52.548;4.918;2024-03-02T05:14:34;3.63;;;2.17;;
16977;SDS011;8605;52.548;4.918;2024-03-02T05:17:02;4.13;;;2.20;;
16977;SDS011;8605;52.548;4.918;2024-03-02T05:19:30;4.67;;;2.10;;
16977;SDS011;8605;52.548;4.918;2024-03-02T05:21:58;4.03;;;2.33;;
16977;SDS011;8605;52.548;4.918;2024-03-02T05:24:25;3.60;;;2.40;;
16977;SDS011;8605;52.548;4.918;2024-03-02T05:26:56;4.10;;;2.20;;
16977;SDS011;8605;52.548;4.918;2024-03-02T05:29:23;3.13;;;2.10;;
16977;SDS011;8605;52.548;4.918;2024-03-02T05:31:51;3.20;;;2.10;;
16977;SDS011;8605;52.548;4.918;2024-03-02T05:34:19;4.73;;;2.73;;
16977;SDS011;8605;52.548;4.918;2024-03-02T05:36:46;4.50;;;2.03;;
16977;SDS011;8605;52.548;4.918;2024-03-02T05:39:14;4.93;;;2.00;;
16977;SDS011;8605;52.548;4.918;2024-03-02T05:41:42;5.47;;;1.93;;
16977;SDS011;8605;52.548;4.918;2024-03-02T05:44:11;4.83;;;2.00;;
16977;SDS011;8605;52.548;4.918;2024-03-02T05:46:41;4.57;;;2.17;;
16977;SDS011;8605;52.548;4.918;2024-03-02T05:49:09;4.63;;;1.90;;
16977;SDS011;8605;52.548;4.918;2024-03-02T05:51:36;5.87;;;2.10;;
16977;SDS011;8605;52.548;4.918;2024-03-02T05:54:04;3.83;;;1.93;;
16977;SDS011;8605;52.548;4.918;2024-03-02T05:56:32;5.67;;;2.10;;
16977;SDS011;8605;52.548;4.918;2024-03-02T05:59:00;5.47;;;1.73;;
16977;SDS011;8605;52.548;4.918;2024-03-02T06:01:39;2.83;;;1.50;;
16977;SDS011;8605;52.548;4.918;2024-03-02T06:04:07;6.77;;;1.70;;
16977;SDS011;8605;52.548;4.918;2024-03-02T06:06:37;3.30;;;1.70;;
16977;SDS011;8605;52.548;4.918;2024-03-02T06:09:05;3.70;;;1.63;;
16977;SDS011;8605;52.548;4.918;2024-03-02T06:11:34;3.20;;;1.60;;
16977;SDS011;8605;52.548;4.918;2024-03-02T06:14:02;2.50;;;1.70;;
16977;SDS011;8605;52.548;4.918;2024-03-02T06:16:30;4.47;;;1.80;;
16977;SDS011;8605;52.548;4.918;2024-03-02T06:18:59;5.27;;;1.63;;
16977;SDS011;8605;52.548;4.918;2024-03-02T06:21:28;4.03;;;1.73;;
16977;SDS011;8605;52.548;4.918;2024-03-02T06:23:56;4.50;;;1.60;;
16977;SDS011;8605;52.548;4.918;2024-03-02T06:26:24;3.03;;;1.60;;
16977;SDS011;8605;52.548;4.918;2024-03-02T06:28:51;2.93;;;1.70;;
16977;SDS011;8605;52.548;4.918;2024-03-02T06:31:19;4.57;;;1.67;;
16977;SDS011;8605;52.548;4.918;2024-03-02T06:33:47;3.03;;;1.60;;
16977;SDS011;8605;52.548;4.918;2024-03-02T06:36:16;5.70;;;1.67;;
16977;SDS011;8605;52.548;4.918;2024-03-02T06:38:43;3.73;;;1.70;;
16977;SDS011;8605;52.548;4.918;2024-03-02T06:41:11;4.87;;;1.60;;
16977;SDS011;8605;52.548;4.918;2024-03-02T06:43:39;8.80;;;2.33;;
16977;SDS011;8605;52.548;4.918;2024-03-02T06:46:07;1.97;;;1.60;;
16977;SDS011;8605;52.548;4.918;2024-03-02T06:48:36;2.13;;;1.50;;
16977;SDS011;8605;52.548;4.918;2024-03-02T06:51:03;5.90;;;1.60;;
16977;SDS011;8605;52.548;4.918;2024-03-02T06:53:33;3.37;;;1.43;;
16977;SDS011;8605;52.548;4.918;2024-03-02T06:56:00;2.80;;;1.77;;
16977;SDS011;8605;52.548;4.918;2024-03-02T06:58:28;3.63;;;1.30;;
16977;SDS011;8605;52.548;4.918;2024-03-02T07:00:56;4.20;;;1.60;;
16977;SDS011;8605;52.548;4.918;2024-03-02T07:03:24;2.17;;;1.33;;
16977;SDS011;8605;52.548;4.918;2024-03-02T07:05:52;4.97;;;1.40;;
16977;SDS011;8605;52.548;4.918;2024-03-02T07:08:19;6.67;;;1.70;;
16977;SDS011;8605;52.548;4.918;2024-03-02T07:10:49;4.97;;;1.50;;
16977;SDS011;8605;52.548;4.918;2024-03-02T07:13:16;5.87;;;1.10;;
16977;SDS011;8605;52.548;4.918;2024-03-02T07:15:44;5.93;;;1.57;;
16977;SDS011;8605;52.548;4.918;2024-03-02T07:18:32;7.20;;;1.50;;
16977;SDS011;8605;52.548;4.918;2024-03-02T07:21:01;3.67;;;1.60;;
16977;SDS011;8605;52.548;4.918;2024-03-02T07:23:29;4.73;;;1.40;;
16977;SDS011;8605;52.548;4.918;2024-03-02T07:25:59;4.60;;;1.40;;
16977;SDS011;8605;52.548;4.918;2024-03-02T07:28:31;4.10;;;1.47;;
16977;SDS011;8605;52.548;4.918;2024-03-02T07:30:59;9.03;;;1.43;;
16977;SDS011;8605;52.548;4.918;2024-03-02T07:33:28;3.70;;;1.20;;
16977;SDS011;8605;52.548;4.918;2024-03-02T07:35:59;3.90;;;1.33;;
16977;SDS011;8605;52.548;4.918;2024-03-02T07:38:30;5.37;;;1.27;;
16977;SDS011;8605;52.548;4.918;2024-03-02T07:41:01;2.40;;;1.23;;
16977;SDS011;8605;52.548;4.918;2024-03-02T07:43:30;5.43;;;1.50;;
16977;SDS011;8605;52.548;4.918;2024-03-02T07:45:59;4.90;;;1.20;;
16977;SDS011;8605;52.548;4.918;2024-03-02T07:48:27;5.07;;;1.27;;
16977;SDS011;8605;52.548;4.918;2024-03-02T07:50:55;5.00;;;1.30;;
16977;SDS011;8605;52.548;4.918;2024-03-02T07:53:28;5.70;;;1.30;;
16977;SDS011;8605;52.548;4.918;2024-03-02T07:55:56;3.70;;;1.13;;
16977;SDS011;8605;52.548;4.918;2024-03-02T07:58:29;4.73;;;1.53;;
16977;SDS011;8605;52.548;4.918;2024-03-02T08:00:59;4.37;;;1.40;;
16977;SDS011;8605;52.548;4.918;2024-03-02T08:03:28;4.40;;;1.27;;
16977;SDS011;8605;52.548;4.918;2024-03-02T08:05:58;8.03;;;1.30;;
16977;SDS011;8605;52.548;4.918;2024-03-02T08:08:26;6.00;;;1.30;;
16977;SDS011;8605;52.548;4.918;2024-03-02T08:10:54;5.80;;;1.33;;
16977;SDS011;8605;52.548;4.918;2024-03-02T08:13:24;4.13;;;1.30;;
16977;SDS011;8605;52.548;4.918;2024-03-02T08:15:53;6.33;;;1.33;;
16977;SDS011;8605;52.548;4.918;2024-03-02T08:18:22;4.33;;;1.17;;
16977;SDS011;8605;52.548;4.918;2024-03-02T08:20:49;4.73;;;1.10;;
16977;SDS011;8605;52.548;4.918;2024-03-02T08:23:17;5.50;;;1.23;;
16977;SDS011;8605;52.548;4.918;2024-03-02T08:25:45;6.87;;;1.30;;
16977;SDS011;8605;52.548;4.918;2024-03-02T08:28:13;5.30;;;1.33;;
16977;SDS011;8605;52.548;4.918;2024-03-02T08:30:41;5.00;;;1.27;;
16977;SDS011;8605;52.548;4.918;2024-03-02T08:33:10;3.60;;;1.30;;
16977;SDS011;8605;52.548;4.918;2024-03-02T08:35:38;5.10;;;1.33;;
16977;SDS011;8605;52.548;4.918;2024-03-02T08:38:05;4.80;;;1.40;;
16977;SDS011;8605;52.548;4.918;2024-03-02T08:40:33;6.27;;;1.27;;
16977;SDS011;8605;52.548;4.918;2024-03-02T08:43:01;4.33;;;1.20;;
16977;SDS011;8605;52.548;4.918;2024-03-02T08:45:30;4.17;;;1.33;;
16977;SDS011;8605;52.548;4.918;2024-03-02T08:47:58;5.13;;;1.60;;
16977;SDS011;8605;52.548;4.918;2024-03-02T08:50:27;6.73;;;1.50;;
16977;SDS011;8605;52.548;4.918;2024-03-02T08:52:55;3.50;;;1.13;;
16977;SDS011;8605;52.548;4.918;2024-03-02T08:55:22;7.13;;;1.60;;
16977;SDS011;8605;52.548;4.918;2024-03-02T08:57:50;7.73;;;1.50;;
16977;SDS011;8605;52.548;4.918;2024-03-02T09:00:21;5.27;;;1.30;;
16977;SDS011;8605;52.548;4.918;2024-03-02T09:02:49;7.23;;;1.43;;
16977;SDS011;8605;52.548;4.918;2024-03-02T09:05:17;5.13;;;1.43;;
16977;SDS011;8605;52.548;4.918;2024-03-02T09:07:47;7.00;;;1.70;;
16977;SDS011;8605;52.548;4.918;2024-03-02T09:10:15;6.03;;;1.37;;
16977;SDS011;8605;52.548;4.918;2024-03-02T09:12:43;7.73;;;1.67;;
16977;SDS011;8605;52.548;4.918;2024-03-02T09:15:11;6.77;;;1.50;;
16977;SDS011;8605;52.548;4.918;2024-03-02T09:17:39;5.60;;;1.57;;
16977;SDS011;8605;52.548;4.918;2024-03-02T09:20:07;4.23;;;1.10;;
16977;SDS011;8605;52.548;4.918;2024-03-02T09:22:35;8.13;;;1.67;;
16977;SDS011;8605;52.548;4.918;2024-03-02T09:25:04;3.53;;;1.30;;
16977;SDS011;8605;52.548;4.918;2024-03-02T09:27:36;8.03;;;1.83;;
16977;SDS011;8605;52.548;4.918;2024-03-02T09:30:04;10.40;;;1.67;;
16977;SDS011;8605;52.548;4.918;2024-03-02T09:32:35;7.67;;;1.13;;
16977;SDS011;8605;52.548;4.918;2024-03-02T09:35:04;9.33;;;1.40;;
16977;SDS011;8605;52.548;4.918;2024-03-02T09:37:32;6.30;;;1.50;;
16977;SDS011;8605;52.548;4.918;2024-03-02T09:40:00;7.13;;;1.40;;
16977;SDS011;8605;52.548;4.918;2024-03-02T09:42:29;8.33;;;1.60;;
16977;SDS011;8605;52.548;4.918;2024-03-02T09:44:58;9.30;;;1.80;;
16977;SDS011;8605;52.548;4.918;2024-03-02T09:47:26;9.47;;;1.40;;
16977;SDS011;8605;52.548;4.918;2024-03-02T09:49:54;8.20;;;1.57;;
16977;SDS011;8605;52.548;4.918;2024-03-02T09:52:22;5.45;;;1.42;;
16977;SDS011;8605;52.548;4.918;2024-03-02T09:54:50;4.03;;;1.47;;
16977;SDS011;8605;52.548;4.918;2024-03-02T09:57:18;6.70;;;1.57;;
16977;SDS011;8605;52.548;4.918;2024-03-02T09:59:48;8.90;;;1.57;;
16977;SDS011;8605;52.548;4.918;2024-03-02T10:02:15;8.27;;;1.50;;
16977;SDS011;8605;52.548;4.918;2024-03-02T10:04:43;8.90;;;1.55;;
16977;SDS011;8605;52.548;4.918;2024-03-02T10:07:13;8.23;;;1.40;;
16977;SDS011;8605;52.548;4.918;2024-03-02T10:09:41;11.57;;;1.43;;
16977;SDS011;8605;52.548;4.918;2024-03-02T10:12:13;11.50;;;1.50;;
16977;SDS011;8605;52.548;4.918;2024-03-02T10:14:42;7.53;;;1.27;;
16977;SDS011;8605;52.548;4.918;2024-03-02T10:17:13;6.97;;;1.63;;
16977;SDS011;8605;52.548;4.918;2024-03-02T10:19:45;6.90;;;1.83;;
16977;SDS011;8605;52.548;4.918;2024-03-02T10:22:12;8.25;;;1.77;;
16977;SDS011;8605;52.548;4.918;2024-03-02T10:24:41;8.77;;;1.80;;
16977;SDS011;8605;52.548;4.918;2024-03-02T10:27:14;10.07;;;1.77;;
16977;SDS011;8605;52.548;4.918;2024-03-02T10:29:45;10.25;;;1.77;;
16977;SDS011;8605;52.548;4.918;2024-03-02T10:32:15;7.88;;;1.40;;
16977;SDS011;8605;52.548;4.918;2024-03-02T10:34:44;7.03;;;1.42;;
16977;SDS011;8605;52.548;4.918;2024-03-02T10:37:13;10.35;;;1.50;;
16977;SDS011;8605;52.548;4.918;2024-03-02T10:39:43;9.38;;;1.55;;
16977;SDS011;8605;52.548;4.918;2024-03-02T10:42:14;10.18;;;1.67;;
16977;SDS011;8605;52.548;4.918;2024-03-02T10:44:42;9.68;;;1.77;;
16977;SDS011;8605;52.548;4.918;2024-03-02T10:47:12;7.65;;;1.27;;
16977;SDS011;8605;52.548;4.918;2024-03-02T10:49:42;10.48;;;1.67;;
16977;SDS011;8605;52.548;4.918;2024-03-02T10:52:14;5.90;;;1.40;;
16977;SDS011;8605;52.548;4.918;2024-03-02T10:54:42;11.43;;;1.75;;
16977;SDS011;8605;52.548;4.918;2024-03-02T10:57:13;7.13;;;1.60;;
16977;SDS011;8605;52.548;4.918;2024-03-02T10:59:46;8.82;;;1.60;;
16977;SDS011;8605;52.548;4.918;2024-03-02T11:02:20;8.32;;;1.70;;
16977;SDS011;8605;52.548;4.918;2024-03-02T11:04:54;7.50;;;1.70;;
16977;SDS011;8605;52.548;4.918;2024-03-02T11:07:22;6.75;;;1.40;;
16977;SDS011;8605;52.548;4.918;2024-03-02T11:09:54;7.88;;;1.42;;
16977;SDS011;8605;52.548;4.918;2024-03-02T11:12:27;6.88;;;1.42;;
16977;SDS011;8605;52.548;4.918;2024-03-02T11:14:57;9.18;;;1.48;;
16977;SDS011;8605;52.548;4.918;2024-03-02T11:17:26;9.02;;;1.60;;
16977;SDS011;8605;52.548;4.918;2024-03-02T11:19:55;6.57;;;1.60;;
16977;SDS011;8605;52.548;4.918;2024-03-02T11:22:24;8.68;;;1.42;;
16977;SDS011;8605;52.548;4.918;2024-03-02T11:24:58;11.23;;;1.30;;
16977;SDS011;8605;52.548;4.918;2024-03-02T11:33:24;8.23;;;1.80;;
16977;SDS011;8605;52.548;4.918;2024-03-02T11:35:56;7.75;;;1.55;;
16977;SDS011;8605;52.548;4.918;2024-03-02T11:38:27;5.70;;;1.60;;
16977;SDS011;8605;52.548;4.918;2024-03-02T11:40:56;8.48;;;1.30;;
16977;SDS011;8605;52.548;4.918;2024-03-02T11:43:29;8.45;;;1.48;;
16977;SDS011;8605;52.548;4.918;2024-03-02T11:45:59;7.60;;;1.52;;
16977;SDS011;8605;52.548;4.918;2024-03-02T11:48:30;7.32;;;1.50;;
16977;SDS011;8605;52.548;4.918;2024-03-02T11:51:00;6.68;;;1.30;;
16977;SDS011;8605;52.548;4.918;2024-03-02T11:53:28;7.17;;;1.47;;
16977;SDS011;8605;52.548;4.918;2024-03-02T11:56:01;5.20;;;1.52;;
16977;SDS011;8605;52.548;4.918;2024-03-02T11:58:29;5.90;;;1.50;;
16977;SDS011;8605;52.548;4.918;2024-03-02T12:00:57;10.75;;;1.40;;
16977;SDS011;8605;52.548;4.918;2024-03-02T12:03:28;9.77;;;1.60;;
16977;SDS011;8605;52.548;4.918;2024-03-02T12:05:56;8.52;;;1.40;;
16977;SDS011;8605;52.548;4.918;2024-03-02T12:08:25;6.55;;;1.50;;
16977;SDS011;8605;52.548;4.918;2024-03-02T12:10:57;10.18;;;1.65;;
16977;SDS011;8605;52.548;4.918;2024-03-02T12:13:27;6.55;;;1.20;;
16977;SDS011;8605;52.548;4.918;2024-03-02T12:15:55;6.20;;;1.40;;
16977;SDS011;8605;52.548;4.918;2024-03-02T12:18:23;8.77;;;1.50;;
16977;SDS011;8605;52.548;4.918;2024-03-02T12:20:52;7.60;;;1.60;;
16977;SDS011;8605;52.548;4.918;2024-03-02T12:23:23;7.70;;;1.73;;
16977;SDS011;8605;52.548;4.918;2024-03-02T12:25:53;5.93;;;1.40;;
16977;SDS011;8605;52.548;4.918;2024-03-02T12:28:21;7.82;;;1.63;;
16977;SDS011;8605;52.548;4.918;2024-03-02T12:30:49;6.60;;;1.30;;
16977;SDS011;8605;52.548;4.918;2024-03-02T12:33:17;8.35;;;1.55;;
16977;SDS011;8605;52.548;4.918;2024-03-02T12:35:45;5.10;;;1.40;;
16977;SDS011;8605;52.548;4.918;2024-03-02T12:38:13;6.65;;;1.50;;
16977;SDS011;8605;52.548;4.918;2024-03-02T12:40:43;6.13;;;1.30;;
16977;SDS011;8605;52.548;4.918;2024-03-02T12:43:11;6.53;;;1.17;;
16977;SDS011;8605;52.548;4.918;2024-03-02T12:45:39;10.57;;;1.25;;
16977;SDS011;8605;52.548;4.918;2024-03-02T12:48:07;6.20;;;1.73;;
16977;SDS011;8605;52.548;4.918;2024-03-02T12:50:34;5.72;;;1.10;;
16977;SDS011;8605;52.548;4.918;2024-03-02T12:53:02;5.35;;;1.20;;
16977;SDS011;8605;52.548;4.918;2024-03-02T12:55:30;6.50;;;1.48;;
16977;SDS011;8605;52.548;4.918;2024-03-02T12:58:00;5.90;;;1.25;;
16977;SDS011;8605;52.548;4.918;2024-03-02T13:00:29;8.27;;;1.60;;
16977;SDS011;8605;52.548;4.918;2024-03-02T13:03:01;5.72;;;1.40;;
16977;SDS011;8605;52.548;4.918;2024-03-02T13:05:30;6.70;;;1.20;;
16977;SDS011;8605;52.548;4.918;2024-03-02T13:07:58;8.90;;;1.42;;
16977;SDS011;8605;52.548;4.918;2024-03-02T13:10:27;5.10;;;1.45;;
16977;SDS011;8605;52.548;4.918;2024-03-02T13:12:55;4.60;;;1.50;;
16977;SDS011;8605;52.548;4.918;2024-03-02T13:15:25;6.85;;;1.30;;
16977;SDS011;8605;52.548;4.918;2024-03-02T13:17:53;3.78;;;1.17;;
16977;SDS011;8605;52.548;4.918;2024-03-02T13:20:21;6.47;;;1.20;;
16977;SDS011;8605;52.548;4.918;2024-03-02T13:22:51;4.50;;;1.15;;
16977;SDS011;8605;52.548;4.918;2024-03-02T13:25:19;4.28;;;1.60;;
16977;SDS011;8605;52.548;4.918;2024-03-02T13:27:47;7.05;;;1.17;;
16977;SDS011;8605;52.548;4.918;2024-03-02T13:30:15;8.10;;;1.50;;
16977;SDS011;8605;52.548;4.918;2024-03-02T13:32:44;4.13;;;1.00;;
16977;SDS011;8605;52.548;4.918;2024-03-02T13:35:12;6.75;;;1.50;;
16977;SDS011;8605;52.548;4.918;2024-03-02T13:37:40;6.53;;;1.25;;
16977;SDS011;8605;52.548;4.918;2024-03-02T13:40:09;6.32;;;1.38;;
16977;SDS011;8605;52.548;4.918;2024-03-02T13:42:40;5.53;;;1.67;;
16977;SDS011;8605;52.548;4.918;2024-03-02T13:45:08;7.05;;;1.17;;
16977;SDS011;8605;52.548;4.918;2024-03-02T13:47:36;4.55;;;1.20;;
16977;SDS011;8605;52.548;4.918;2024-03-02T13:50:05;4.97;;;1.30;;
16977;SDS011;8605;52.548;4.918;2024-03-02T13:52:34;4.93;;;1.30;;
16977;SDS011;8605;52.548;4.918;2024-03-02T13:55:01;6.90;;;1.20;;
16977;SDS011;8605;52.548;4.918;2024-03-02T13:57:30;8.40;;;1.40;;
16977;SDS011;8605;52.548;4.918;2024-03-02T14:00:00;5.28;;;1.10;;
16977;SDS011;8605;52.548;4.918;2024-03-02T14:02:29;6.82;;;1.38;;
16977;SDS011;8605;52.548;4.918;2024-03-02T14:04:57;8.82;;;1.40;;
16977;SDS011;8605;52.548;4.918;2024-03-02T14:07:26;7.70;;;1.83;;
16977;SDS011;8605;52.548;4.918;2024-03-02T14:09:54;9.70;;;1.30;;
16977;SDS011;8605;52.548;4.918;2024-03-02T14:12:22;8.35;;;1.70;;
16977;SDS011;8605;52.548;4.918;2024-03-02T14:14:49;5.82;;;1.30;;
16977;SDS011;8605;52.548;4.918;2024-03-02T14:17:19;6.53;;;1.58;;
16977;SDS011;8605;52.548;4.918;2024-03-02T14:19:47;5.45;;;1.38;;
16977;SDS011;8605;52.548;4.918;2024-03-02T14:22:15;8.13;;;1.52;;
16977;SDS011;8605;52.548;4.918;2024-03-02T14:24:46;6.45;;;1.35;;
16977;SDS011;8605;52.548;4.918;2024-03-02T14:27:14;4.65;;;1.30;;
16977;SDS011;8605;52.548;4.918;2024-03-02T14:29:58;6.18;;;1.20;;
16977;SDS011;8605;52.548;4.918;2024-03-02T14:32:26;10.10;;;1.63;;
16977;SDS011;8605;52.548;4.918;2024-03-02T14:34:53;3.28;;;1.30;;
16977;SDS011;8605;52.548;4.918;2024-03-02T14:37:21;4.13;;;1.10;;
16977;SDS011;8605;52.548;4.918;2024-03-02T14:39:50;6.07;;;1.30;;
16977;SDS011;8605;52.548;4.918;2024-03-02T14:42:18;6.85;;;1.65;;
16977;SDS011;8605;52.548;4.918;2024-03-02T14:44:46;4.63;;;1.40;;
16977;SDS011;8605;52.548;4.918;2024-03-02T14:47:14;4.65;;;1.33;;
16977;SDS011;8605;52.548;4.918;2024-03-02T14:49:43;5.18;;;1.38;;
16977;SDS011;8605;52.548;4.918;2024-03-02T14:52:11;4.97;;;1.60;;
16977;SDS011;8605;52.548;4.918;2024-03-02T14:54:39;7.25;;;1.80;;
16977;SDS011;8605;52.548;4.918;2024-03-02T14:57:10;5.05;;;1.40;;
16977;SDS011;8605;52.548;4.918;2024-03-02T14:59:37;6.63;;;2.30;;
16977;SDS011;8605;52.548;4.918;2024-03-02T15:02:05;4.60;;;1.55;;
16977;SDS011;8605;52.548;4.918;2024-03-02T15:04:36;4.82;;;1.48;;
16977;SDS011;8605;52.548;4.918;2024-03-02T15:07:04;9.07;;;1.83;;
16977;SDS011;8605;52.548;4.918;2024-03-02T15:09:32;7.07;;;1.60;;
16977;SDS011;8605;52.548;4.918;2024-03-02T15:12:02;7.88;;;1.95;;
16977;SDS011;8605;52.548;4.918;2024-03-02T15:14:33;6.57;;;2.00;;
16977;SDS011;8605;52.548;4.918;2024-03-02T15:17:00;5.93;;;1.55;;